sensor_id;sensor_type;location;lat;lon;timestamp;P1;durP1;ratioP1;P2;durP2;ratioP2
11092;SDS011;5600;50.864;6.102;2024-01-30T00:00:41;71.37;;;7.77;;
11092;SDS011;5600;50.864;6.102;2024-01-30T00:03:42;58.07;;;7.27;;
11092;SDS011;5600;50.864;6.102;2024-01-30T00:06:43;115.17;;;10.07;;
11092;SDS011;5600;50.864;6.102;2024-01-30T00:09:46;120.50;;;9.83;;
11092;SDS011;5600;50.864;6.102;2024-01-30T00:12:48;48.60;;;6.67;;
11092;SDS011;5600;50.864;6.102;2024-01-30T00:15:49;44.90;;;5.80;;
11092;SDS011;5600;50.864;6.102;2024-01-30T00:18:50;94.77;;;8.60;;
11092;SDS011;5600;50.864;6.102;2024-01-30T00:21:52;58.27;;;6.63;;
11092;SDS011;5600;50.864;6.102;2024-01-30T00:24:53;58.47;;;6.57;;
11092;SDS011;5600;50.864;6.102;2024-01-30T00:27:53;75.67;;;7.70;;
11092;SDS011;5600;50.864;6.102;2024-01-30T00:30:54;70.93;;;7.33;;
11092;SDS011;5600;50.864;6.102;2024-01-30T00:33:55;74.83;;;6.87;;
11092;SDS011;5600;50.864;6.102;2024-01-30T00:36:56;65.37;;;6.67;;
11092;SDS011;5600;50.864;6.102;2024-01-30T00:39:58;74.40;;;6.87;;
11092;SDS011;5600;50.864;6.102;2024-01-30T00:42:58;63.57;;;6.80;;
11092;SDS011;5600;50.864;6.102;2024-01-30T00:45:59;50.73;;;6.07;;
11092;SDS011;5600;50.864;6.102;2024-01-30T00:49:00;35.60;;;5.17;;
11092;SDS011;5600;50.864;6.102;2024-01-30T00:52:01;82.57;;;7.30;;
11092;SDS011;5600;50.864;6.102;2024-01-30T00:55:02;70.33;;;7.13;;
11092;SDS011;5600;50.864;6.102;2024-01-30T00:58:03;90.63;;;7.83;;
11092;SDS011;5600;50.864;6.102;2024-01-30T01:01:04;100.87;;;8.23;;
11092;SDS011;5600;50.864;6.102;2024-01-30T01:04:07;44.33;;;5.70;;
11092;SDS011;5600;50.864;6.102;2024-01-30T01:07:08;36.67;;;5.40;;
11092;SDS011;5600;50.864;6.102;2024-01-30T01:10:09;96.73;;;8.03;;
11092;SDS011;5600;50.864;6.102;2024-01-30T01:13:11;67.67;;;6.80;;
11092;SDS011;5600;50.864;6.102;2024-01-30T01:16:12;74.37;;;7.20;;
11092;SDS011;5600;50.864;6.102;2024-01-30T01:19:13;96.37;;;8.07;;
11092;SDS011;5600;50.864;6.102;2024-01-30T01:22:15;58.50;;;6.10;;
11092;SDS011;5600;50.864;6.102;2024-01-30T01:25:17;80.00;;;7.20;;
11092;SDS011;5600;50.864;6.102;2024-01-30T01:28:18;76.63;;;7.03;;
11092;SDS011;5600;50.864;6.102;2024-01-30T01:31:19;83.67;;;7.43;;
11092;SDS011;5600;50.864;6.102;2024-01-30T01:34:23;65.77;;;6.60;;
11092;SDS011;5600;50.864;6.102;2024-01-30T01:37:24;48.07;;;5.70;;
11092;SDS011;5600;50.864;6.102;2024-01-30T01:40:27;34.97;;;4.83;;
11092;SDS011;5600;50.864;6.102;2024-01-30T01:43:28;80.37;;;6.90;;
11092;SDS011;5600;50.864;6.102;2024-01-30T01:46:30;79.60;;;7.13;;
11092;SDS011;5600;50.864;6.102;2024-01-30T01:49:32;71.07;;;6.70;;
11092;SDS011;5600;50.864;6.102;2024-01-30T01:52:34;47.53;;;5.53;;
11092;SDS011;5600;50.864;6.102;2024-01-30T01:55:34;84.93;;;7.13;;
11092;SDS011;5600;50.864;6.102;2024-01-30T01:58:36;58.23;;;6.13;;
11092;SDS011;5600;50.864;6.102;2024-01-30T02:01:38;73.93;;;7.10;;
11092;SDS011;5600;50.864;6.102;2024-01-30T02:04:41;44.30;;;5.60;;
11092;SDS011;5600;50.864;6.102;2024-01-30T02:07:43;49.40;;;5.53;;
11092;SDS011;5600;50.864;6.102;2024-01-30T02:10:44;94.33;;;8.07;;
11092;SDS011;5600;50.864;6.102;2024-01-30T02:13:45;37.40;;;4.97;;
11092;SDS011;5600;50.864;6.102;2024-01-30T02:16:46;40.27;;;5.23;;
11092;SDS011;5600;50.864;6.102;2024-01-30T02:19:47;49.13;;;5.57;;
11092;SDS011;5600;50.864;6.102;2024-01-30T02:22:48;51.70;;;5.93;;
11092;SDS011;5600;50.864;6.102;2024-01-30T02:25:49;84.17;;;7.23;;
11092;SDS011;5600;50.864;6.102;2024-01-30T02:28:50;64.30;;;5.87;;
11092;SDS011;5600;50.864;6.102;2024-01-30T02:31:51;53.37;;;5.27;;
11092;SDS011;5600;50.864;6.102;2024-01-30T02:34:52;51.73;;;5.67;;
11092;SDS011;5600;50.864;6.102;2024-01-30T02:37:53;80.17;;;6.67;;
11092;SDS011;5600;50.864;6.102;2024-01-30T02:40:54;71.33;;;6.40;;
11092;SDS011;5600;50.864;6.102;2024-01-30T02:43:56;57.60;;;5.83;;
11092;SDS011;5600;50.864;6.102;2024-01-30T02:46:56;83.10;;;6.97;;
11092;SDS011;5600;50.864;6.102;2024-01-30T02:49:57;43.63;;;4.93;;
11092;SDS011;5600;50.864;6.102;2024-01-30T02:52:58;93.87;;;7.33;;
11092;SDS011;5600;50.864;6.102;2024-01-30T02:55:59;82.53;;;6.67;;
11092;SDS011;5600;50.864;6.102;2024-01-30T02:59:00;78.37;;;6.67;;
11092;SDS011;5600;50.864;6.102;2024-01-30T03:02:01;74.03;;;6.70;;
11092;SDS011;5600;50.864;6.102;2024-01-30T03:05:02;87.37;;;6.77;;
11092;SDS011;5600;50.864;6.102;2024-01-30T03:08:06;40.33;;;4.57;;
11092;SDS011;5600;50.864;6.102;2024-01-30T03:11:07;37.27;;;4.40;;
11092;SDS011;5600;50.864;6.102;2024-01-30T03:14:08;38.87;;;4.73;;
11092;SDS011;5600;50.864;6.102;2024-01-30T03:17:11;60.77;;;5.40;;
11092;SDS011;5600;50.864;6.102;2024-01-30T03:20:12;72.13;;;6.30;;
11092;SDS011;5600;50.864;6.102;2024-01-30T03:23:13;71.53;;;6.17;;
11092;SDS011;5600;50.864;6.102;2024-01-30T03:26:14;79.90;;;6.83;;
11092;SDS011;5600;50.864;6.102;2024-01-30T03:29:15;37.20;;;4.87;;
11092;SDS011;5600;50.864;6.102;2024-01-30T03:32:16;47.80;;;4.93;;
11092;SDS011;5600;50.864;6.102;2024-01-30T03:35:18;46.23;;;4.70;;
11092;SDS011;5600;50.864;6.102;2024-01-30T03:38:19;58.03;;;5.67;;
11092;SDS011;5600;50.864;6.102;2024-01-30T03:41:20;43.87;;;5.20;;
11092;SDS011;5600;50.864;6.102;2024-01-30T03:44:21;67.47;;;6.17;;
11092;SDS011;5600;50.864;6.102;2024-01-30T03:47:22;56.23;;;5.57;;
11092;SDS011;5600;50.864;6.102;2024-01-30T03:50:23;70.87;;;5.87;;
11092;SDS011;5600;50.864;6.102;2024-01-30T03:53:24;46.40;;;5.30;;
11092;SDS011;5600;50.864;6.102;2024-01-30T03:56:25;64.77;;;6.13;;
11092;SDS011;5600;50.864;6.102;2024-01-30T03:59:26;53.57;;;5.27;;
11092;SDS011;5600;50.864;6.102;2024-01-30T04:02:27;46.03;;;5.53;;
11092;SDS011;5600;50.864;6.102;2024-01-30T04:05:28;68.23;;;5.97;;
11092;SDS011;5600;50.864;6.102;2024-01-30T04:08:29;61.83;;;6.03;;
11092;SDS011;5600;50.864;6.102;2024-01-30T04:11:30;69.60;;;6.17;;
11092;SDS011;5600;50.864;6.102;2024-01-30T04:14:31;57.30;;;5.30;;
11092;SDS011;5600;50.864;6.102;2024-01-30T04:17:31;71.07;;;6.03;;
11092;SDS011;5600;50.864;6.102;2024-01-30T04:20:33;55.23;;;5.60;;
11092;SDS011;5600;50.864;6.102;2024-01-30T04:23:33;74.67;;;6.40;;
11092;SDS011;5600;50.864;6.102;2024-01-30T04:26:34;78.10;;;6.97;;
11092;SDS011;5600;50.864;6.102;2024-01-30T04:29:36;33.80;;;4.60;;
11092;SDS011;5600;50.864;6.102;2024-01-30T04:32:38;33.23;;;4.53;;
11092;SDS011;5600;50.864;6.102;2024-01-30T04:35:38;49.97;;;5.30;;
11092;SDS011;5600;50.864;6.102;2024-01-30T04:38:39;91.33;;;7.13;;
11092;SDS011;5600;50.864;6.102;2024-01-30T04:41:40;89.00;;;7.00;;
11092;SDS011;5600;50.864;6.102;2024-01-30T04:44:41;52.03;;;5.33;;
11092;SDS011;5600;50.864;6.102;2024-01-30T04:47:42;31.57;;;4.57;;
11092;SDS011;5600;50.864;6.102;2024-01-30T04:50:43;79.57;;;6.80;;
11092;SDS011;5600;50.864;6.102;2024-01-30T04:53:44;40.23;;;5.13;;
11092;SDS011;5600;50.864;6.102;2024-01-30T04:56:45;46.27;;;5.27;;
11092;SDS011;5600;50.864;6.102;2024-01-30T04:59:46;101.27;;;7.70;;
11092;SDS011;5600;50.864;6.102;2024-01-30T05:02:47;52.57;;;5.70;;
11092;SDS011;5600;50.864;6.102;2024-01-30T05:05:48;78.60;;;7.07;;
11092;SDS011;5600;50.864;6.102;2024-01-30T05:08:49;107.47;;;7.80;;
11092;SDS011;5600;50.864;6.102;2024-01-30T05:11:50;55.93;;;5.83;;
11092;SDS011;5600;50.864;6.102;2024-01-30T05:14:51;47.03;;;5.23;;
11092;SDS011;5600;50.864;6.102;2024-01-30T05:17:52;42.73;;;4.83;;
11092;SDS011;5600;50.864;6.102;2024-01-30T05:20:53;47.77;;;5.10;;
11092;SDS011;5600;50.864;6.102;2024-01-30T05:23:53;83.80;;;6.70;;
11092;SDS011;5600;50.864;6.102;2024-01-30T05:26:55;94.33;;;7.50;;
11092;SDS011;5600;50.864;6.102;2024-01-30T05:29:56;103.07;;;7.63;;
11092;SDS011;5600;50.864;6.102;2024-01-30T05:32:57;67.47;;;6.10;;
11092;SDS011;5600;50.864;6.102;2024-01-30T05:35:57;85.13;;;6.97;;
11092;SDS011;5600;50.864;6.102;2024-01-30T05:38:58;66.43;;;6.17;;
11092;SDS011;5600;50.864;6.102;2024-01-30T05:41:59;80.53;;;6.70;;
11092;SDS011;5600;50.864;6.102;2024-01-30T05:45:01;91.67;;;7.03;;
11092;SDS011;5600;50.864;6.102;2024-01-30T05:48:02;64.23;;;6.27;;
11092;SDS011;5600;50.864;6.102;2024-01-30T05:51:03;58.67;;;5.53;;
11092;SDS011;5600;50.864;6.102;2024-01-30T05:54:04;105.97;;;7.83;;
11092;SDS011;5600;50.864;6.102;2024-01-30T05:57:06;105.07;;;8.03;;
11092;SDS011;5600;50.864;6.102;2024-01-30T06:00:06;91.27;;;7.10;;
11092;SDS011;5600;50.864;6.102;2024-01-30T06:03:09;76.93;;;6.40;;
11092;SDS011;5600;50.864;6.102;2024-01-30T06:06:10;114.30;;;8.37;;
11092;SDS011;5600;50.864;6.102;2024-01-30T06:09:11;121.53;;;8.23;;
11092;SDS011;5600;50.864;6.102;2024-01-30T06:12:13;100.07;;;7.37;;
11092;SDS011;5600;50.864;6.102;2024-01-30T06:15:14;86.50;;;7.27;;
11092;SDS011;5600;50.864;6.102;2024-01-30T06:18:15;106.27;;;7.80;;
11092;SDS011;5600;50.864;6.102;2024-01-30T06:21:16;77.50;;;6.63;;
11092;SDS011;5600;50.864;6.102;2024-01-30T06:24:17;94.23;;;7.33;;
11092;SDS011;5600;50.864;6.102;2024-01-30T06:27:18;92.90;;;7.03;;
11092;SDS011;5600;50.864;6.102;2024-01-30T06:30:19;99.77;;;7.77;;
11092;SDS011;5600;50.864;6.102;2024-01-30T06:33:20;73.77;;;6.47;;
11092;SDS011;5600;50.864;6.102;2024-01-30T06:36:21;98.43;;;7.60;;
11092;SDS011;5600;50.864;6.102;2024-01-30T06:39:22;57.37;;;5.53;;
11092;SDS011;5600;50.864;6.102;2024-01-30T06:42:23;142.90;;;9.73;;
11092;SDS011;5600;50.864;6.102;2024-01-30T06:45:24;130.23;;;9.07;;
11092;SDS011;5600;50.864;6.102;2024-01-30T06:48:25;95.30;;;7.70;;
11092;SDS011;5600;50.864;6.102;2024-01-30T06:51:27;45.30;;;5.53;;
11092;SDS011;5600;50.864;6.102;2024-01-30T06:54:28;57.03;;;5.90;;
11092;SDS011;5600;50.864;6.102;2024-01-30T06:57:29;50.87;;;5.57;;
11092;SDS011;5600;50.864;6.102;2024-01-30T07:00:30;50.97;;;5.73;;
11092;SDS011;5600;50.864;6.102;2024-01-30T07:03:31;55.13;;;5.73;;
11092;SDS011;5600;50.864;6.102;2024-01-30T07:06:32;80.47;;;7.20;;
11092;SDS011;5600;50.864;6.102;2024-01-30T07:09:33;75.47;;;6.87;;
11092;SDS011;5600;50.864;6.102;2024-01-30T07:12:34;73.33;;;6.90;;
11092;SDS011;5600;50.864;6.102;2024-01-30T07:15:35;91.17;;;7.83;;
11092;SDS011;5600;50.864;6.102;2024-01-30T07:18:37;116.20;;;8.70;;
11092;SDS011;5600;50.864;6.102;2024-01-30T07:21:38;63.43;;;6.50;;
11092;SDS011;5600;50.864;6.102;2024-01-30T07:24:43;65.37;;;5.97;;
11092;SDS011;5600;50.864;6.102;2024-01-30T07:27:49;82.93;;;7.37;;
11092;SDS011;5600;50.864;6.102;2024-01-30T07:30:50;44.10;;;5.33;;
11092;SDS011;5600;50.864;6.102;2024-01-30T07:33:51;53.13;;;6.00;;
11092;SDS011;5600;50.864;6.102;2024-01-30T07:36:52;53.77;;;6.10;;
11092;SDS011;5600;50.864;6.102;2024-01-30T07:39:53;57.93;;;6.23;;
11092;SDS011;5600;50.864;6.102;2024-01-30T07:42:54;57.50;;;6.57;;
11092;SDS011;5600;50.864;6.102;2024-01-30T07:45:55;68.27;;;6.57;;
11092;SDS011;5600;50.864;6.102;2024-01-30T07:48:55;65.27;;;6.17;;
11092;SDS011;5600;50.864;6.102;2024-01-30T07:51:57;43.40;;;5.43;;
11092;SDS011;5600;50.864;6.102;2024-01-30T07:54:58;109.20;;;8.17;;
11092;SDS011;5600;50.864;6.102;2024-01-30T07:57:58;87.03;;;7.60;;
11092;SDS011;5600;50.864;6.102;2024-01-30T08:01:00;62.87;;;6.87;;
11092;SDS011;5600;50.864;6.102;2024-01-30T08:04:01;52.67;;;6.03;;
11092;SDS011;5600;50.864;6.102;2024-01-30T08:07:02;63.17;;;6.43;;
11092;SDS011;5600;50.864;6.102;2024-01-30T08:10:02;79.43;;;7.53;;
11092;SDS011;5600;50.864;6.102;2024-01-30T08:13:03;80.53;;;7.27;;
11092;SDS011;5600;50.864;6.102;2024-01-30T08:16:04;73.40;;;7.07;;
11092;SDS011;5600;50.864;6.102;2024-01-30T08:19:05;61.77;;;6.50;;
11092;SDS011;5600;50.864;6.102;2024-01-30T08:22:06;64.77;;;6.57;;
11092;SDS011;5600;50.864;6.102;2024-01-30T08:25:07;106.20;;;8.63;;
11092;SDS011;5600;50.864;6.102;2024-01-30T08:28:09;52.23;;;6.23;;
11092;SDS011;5600;50.864;6.102;2024-01-30T08:31:11;63.17;;;6.87;;
11092;SDS011;5600;50.864;6.102;2024-01-30T08:34:12;76.50;;;7.37;;
11092;SDS011;5600;50.864;6.102;2024-01-30T08:37:13;76.07;;;7.60;;
11092;SDS011;5600;50.864;6.102;2024-01-30T08:40:16;51.07;;;6.67;;
11092;SDS011;5600;50.864;6.102;2024-01-30T08:43:17;75.53;;;7.63;;
11092;SDS011;5600;50.864;6.102;2024-01-30T08:46:18;84.73;;;8.03;;
11092;SDS011;5600;50.864;6.102;2024-01-30T08:49:20;79.40;;;8.30;;
11092;SDS011;5600;50.864;6.102;2024-01-30T08:52:21;127.10;;;10.03;;
11092;SDS011;5600;50.864;6.102;2024-01-30T08:55:22;110.23;;;9.27;;
11092;SDS011;5600;50.864;6.102;2024-01-30T08:58:23;96.40;;;8.87;;
11092;SDS011;5600;50.864;6.102;2024-01-30T09:01:25;98.60;;;8.93;;
11092;SDS011;5600;50.864;6.102;2024-01-30T09:04:26;87.27;;;8.33;;
11092;SDS011;5600;50.864;6.102;2024-01-30T09:07:27;78.43;;;7.90;;
11092;SDS011;5600;50.864;6.102;2024-01-30T09:10:29;112.93;;;9.70;;
11092;SDS011;5600;50.864;6.102;2024-01-30T09:13:29;115.70;;;9.10;;
11092;SDS011;5600;50.864;6.102;2024-01-30T09:16:30;76.33;;;7.60;;
11092;SDS011;5600;50.864;6.102;2024-01-30T09:19:31;106.77;;;9.17;;
11092;SDS011;5600;50.864;6.102;2024-01-30T09:22:32;108.30;;;9.13;;
11092;SDS011;5600;50.864;6.102;2024-01-30T09:25:33;108.10;;;9.33;;
11092;SDS011;5600;50.864;6.102;2024-01-30T09:28:34;93.67;;;8.17;;
11092;SDS011;5600;50.864;6.102;2024-01-30T09:31:35;113.83;;;9.50;;
11092;SDS011;5600;50.864;6.102;2024-01-30T09:34:36;100.07;;;8.87;;
11092;SDS011;5600;50.864;6.102;2024-01-30T09:37:39;89.53;;;7.93;;
11092;SDS011;5600;50.864;6.102;2024-01-30T09:40:40;74.30;;;7.73;;
11092;SDS011;5600;50.864;6.102;2024-01-30T09:43:42;64.70;;;7.23;;
11092;SDS011;5600;50.864;6.102;2024-01-30T09:46:48;35.43;;;5.63;;
11092;SDS011;5600;50.864;6.102;2024-01-30T09:49:51;62.03;;;6.40;;
11092;SDS011;5600;50.864;6.102;2024-01-30T09:52:51;99.23;;;8.00;;
11092;SDS011;5600;50.864;6.102;2024-01-30T09:55:55;43.37;;;5.53;;
11092;SDS011;5600;50.864;6.102;2024-01-30T09:58:57;73.90;;;7.23;;
11092;SDS011;5600;50.864;6.102;2024-01-30T10:01:58;41.00;;;5.13;;
11092;SDS011;5600;50.864;6.102;2024-01-30T10:04:59;46.57;;;6.13;;
11092;SDS011;5600;50.864;6.102;2024-01-30T10:08:00;114.87;;;9.07;;
11092;SDS011;5600;50.864;6.102;2024-01-30T10:11:03;71.13;;;7.17;;
11092;SDS011;5600;50.864;6.102;2024-01-30T10:14:04;43.07;;;5.83;;
11092;SDS011;5600;50.864;6.102;2024-01-30T10:17:05;51.17;;;6.43;;
11092;SDS011;5600;50.864;6.102;2024-01-30T10:20:08;69.50;;;6.97;;
11092;SDS011;5600;50.864;6.102;2024-01-30T10:23:09;103.50;;;8.80;;
11092;SDS011;5600;50.864;6.102;2024-01-30T10:26:10;73.07;;;7.13;;
11092;SDS011;5600;50.864;6.102;2024-01-30T10:29:12;60.53;;;6.40;;
11092;SDS011;5600;50.864;6.102;2024-01-30T10:32:13;93.57;;;8.23;;
11092;SDS011;5600;50.864;6.102;2024-01-30T10:35:15;79.40;;;7.63;;
11092;SDS011;5600;50.864;6.102;2024-01-30T10:38:16;45.27;;;6.30;;
11092;SDS011;5600;50.864;6.102;2024-01-30T10:41:22;124.50;;;9.83;;
11092;SDS011;5600;50.864;6.102;2024-01-30T10:44:26;107.20;;;9.30;;
11092;SDS011;5600;50.864;6.102;2024-01-30T10:47:30;88.80;;;8.03;;
11092;SDS011;5600;50.864;6.102;2024-01-30T10:50:31;62.90;;;6.93;;
11092;SDS011;5600;50.864;6.102;2024-01-30T10:53:34;75.37;;;7.40;;
11092;SDS011;5600;50.864;6.102;2024-01-30T10:56:35;81.27;;;8.17;;
11092;SDS011;5600;50.864;6.102;2024-01-30T10:59:37;61.27;;;6.50;;
11092;SDS011;5600;50.864;6.102;2024-01-30T11:02:38;86.33;;;8.10;;
11092;SDS011;5600;50.864;6.102;2024-01-30T11:05:42;131.97;;;9.93;;
11092;SDS011;5600;50.864;6.102;2024-01-30T11:08:43;80.93;;;7.60;;
11092;SDS011;5600;50.864;6.102;2024-01-30T11:11:50;79.07;;;7.97;;
11092;SDS011;5600;50.864;6.102;2024-01-30T11:15:02;76.57;;;7.67;;
11092;SDS011;5600;50.864;6.102;2024-01-30T11:18:07;73.80;;;7.77;;
11092;SDS011;5600;50.864;6.102;2024-01-30T11:21:08;118.73;;;9.63;;
11092;SDS011;5600;50.864;6.102;2024-01-30T11:24:09;59.40;;;7.20;;
11092;SDS011;5600;50.864;6.102;2024-01-30T11:27:11;65.17;;;7.20;;
11092;SDS011;5600;50.864;6.102;2024-01-30T11:30:25;80.03;;;7.93;;
11092;SDS011;5600;50.864;6.102;2024-01-30T11:33:28;75.10;;;7.67;;
11092;SDS011;5600;50.864;6.102;2024-01-30T11:36:33;222.70;;;14.47;;
11092;SDS011;5600;50.864;6.102;2024-01-30T11:39:37;93.20;;;8.47;;
11092;SDS011;5600;50.864;6.102;2024-01-30T11:42:38;82.50;;;8.03;;
11092;SDS011;5600;50.864;6.102;2024-01-30T11:45:40;102.20;;;9.33;;
11092;SDS011;5600;50.864;6.102;2024-01-30T11:48:41;116.07;;;10.07;;
11092;SDS011;5600;50.864;6.102;2024-01-30T11:51:43;82.77;;;8.77;;
11092;SDS011;5600;50.864;6.102;2024-01-30T11:54:45;125.80;;;10.60;;
11092;SDS011;5600;50.864;6.102;2024-01-30T11:57:47;88.60;;;9.03;;
11092;SDS011;5600;50.864;6.102;2024-01-30T12:00:56;71.73;;;8.40;;
11092;SDS011;5600;50.864;6.102;2024-01-30T12:03:58;62.63;;;8.23;;
11092;SDS011;5600;50.864;6.102;2024-01-30T12:06:59;105.37;;;10.10;;
11092;SDS011;5600;50.864;6.102;2024-01-30T12:10:00;70.20;;;8.57;;
11092;SDS011;5600;50.864;6.102;2024-01-30T12:13:02;118.60;;;10.27;;
11092;SDS011;5600;50.864;6.102;2024-01-30T12:16:03;115.70;;;10.60;;
11092;SDS011;5600;50.864;6.102;2024-01-30T12:19:04;118.20;;;10.57;;
11092;SDS011;5600;50.864;6.102;2024-01-30T12:22:05;71.67;;;8.30;;
11092;SDS011;5600;50.864;6.102;2024-01-30T12:25:08;121.60;;;10.73;;
11092;SDS011;5600;50.864;6.102;2024-01-30T12:28:13;89.50;;;9.63;;
11092;SDS011;5600;50.864;6.102;2024-01-30T12:31:15;138.63;;;11.37;;
11092;SDS011;5600;50.864;6.102;2024-01-30T12:34:17;96.80;;;9.50;;
11092;SDS011;5600;50.864;6.102;2024-01-30T12:37:17;108.87;;;10.33;;
11092;SDS011;5600;50.864;6.102;2024-01-30T12:40:22;79.43;;;9.27;;
11092;SDS011;5600;50.864;6.102;2024-01-30T12:43:24;85.03;;;9.27;;
11092;SDS011;5600;50.864;6.102;2024-01-30T12:46:29;79.30;;;9.27;;
11092;SDS011;5600;50.864;6.102;2024-01-30T12:49:30;73.23;;;9.17;;
11092;SDS011;5600;50.864;6.102;2024-01-30T12:52:31;66.57;;;8.83;;
11092;SDS011;5600;50.864;6.102;2024-01-30T12:55:32;82.33;;;9.30;;
11092;SDS011;5600;50.864;6.102;2024-01-30T12:58:33;56.20;;;8.07;;
11092;SDS011;5600;50.864;6.102;2024-01-30T13:01:33;59.77;;;8.50;;
11092;SDS011;5600;50.864;6.102;2024-01-30T13:04:34;80.37;;;9.40;;
11092;SDS011;5600;50.864;6.102;2024-01-30T13:07:36;78.87;;;9.67;;
11092;SDS011;5600;50.864;6.102;2024-01-30T13:10:36;74.70;;;9.87;;
11092;SDS011;5600;50.864;6.102;2024-01-30T13:13:38;72.80;;;9.23;;
11092;SDS011;5600;50.864;6.102;2024-01-30T13:16:39;58.37;;;8.50;;
11092;SDS011;5600;50.864;6.102;2024-01-30T13:19:40;113.63;;;10.93;;
11092;SDS011;5600;50.864;6.102;2024-01-30T13:22:41;82.17;;;9.40;;
11092;SDS011;5600;50.864;6.102;2024-01-30T13:25:41;88.13;;;10.03;;
11092;SDS011;5600;50.864;6.102;2024-01-30T13:28:42;97.07;;;10.23;;
11092;SDS011;5600;50.864;6.102;2024-01-30T13:31:43;99.10;;;10.40;;
11092;SDS011;5600;50.864;6.102;2024-01-30T13:34:47;118.07;;;10.87;;
11092;SDS011;5600;50.864;6.102;2024-01-30T13:37:48;93.70;;;9.93;;
11092;SDS011;5600;50.864;6.102;2024-01-30T13:40:49;96.33;;;9.83;;
11092;SDS011;5600;50.864;6.102;2024-01-30T13:43:49;70.53;;;8.47;;
11092;SDS011;5600;50.864;6.102;2024-01-30T13:46:51;81.03;;;9.13;;
11092;SDS011;5600;50.864;6.102;2024-01-30T13:49:52;138.10;;;11.53;;
11092;SDS011;5600;50.864;6.102;2024-01-30T13:52:53;80.63;;;9.97;;
11092;SDS011;5600;50.864;6.102;2024-01-30T13:55:54;80.23;;;9.40;;
11092;SDS011;5600;50.864;6.102;2024-01-30T13:58:55;95.97;;;9.63;;
11092;SDS011;5600;50.864;6.102;2024-01-30T14:01:57;65.53;;;9.03;;
11092;SDS011;5600;50.864;6.102;2024-01-30T14:04:58;93.27;;;9.13;;
11092;SDS011;5600;50.864;6.102;2024-01-30T14:07:59;79.30;;;9.53;;
11092;SDS011;5600;50.864;6.102;2024-01-30T14:11:00;66.73;;;8.50;;
11092;SDS011;5600;50.864;6.102;2024-01-30T14:14:01;75.77;;;8.93;;
11092;SDS011;5600;50.864;6.102;2024-01-30T14:17:02;72.60;;;8.73;;
11092;SDS011;5600;50.864;6.102;2024-01-30T14:20:03;77.10;;;9.33;;
11092;SDS011;5600;50.864;6.102;2024-01-30T14:23:05;72.17;;;8.77;;
11092;SDS011;5600;50.864;6.102;2024-01-30T14:26:05;52.53;;;8.33;;
11092;SDS011;5600;50.864;6.102;2024-01-30T14:29:07;84.47;;;10.23;;
11092;SDS011;5600;50.864;6.102;2024-01-30T14:32:08;92.07;;;9.90;;
11092;SDS011;5600;50.864;6.102;2024-01-30T14:35:09;61.60;;;8.20;;
11092;SDS011;5600;50.864;6.102;2024-01-30T14:38:10;95.60;;;9.83;;
11092;SDS011;5600;50.864;6.102;2024-01-30T14:41:11;91.83;;;9.70;;
11092;SDS011;5600;50.864;6.102;2024-01-30T14:44:12;74.80;;;8.77;;
11092;SDS011;5600;50.864;6.102;2024-01-30T14:47:14;77.93;;;8.83;;
11092;SDS011;5600;50.864;6.102;2024-01-30T14:50:16;99.27;;;8.80;;
11092;SDS011;5600;50.864;6.102;2024-01-30T14:53:17;103.43;;;8.90;;
11092;SDS011;5600;50.864;6.102;2024-01-30T14:56:18;65.77;;;7.53;;
11092;SDS011;5600;50.864;6.102;2024-01-30T14:59:21;99.57;;;9.57;;
11092;SDS011;5600;50.864;6.102;2024-01-30T15:02:22;122.13;;;10.97;;
11092;SDS011;5600;50.864;6.102;2024-01-30T15:05:23;93.60;;;8.90;;
11092;SDS011;5600;50.864;6.102;2024-01-30T15:08:24;117.97;;;9.60;;
11092;SDS011;5600;50.864;6.102;2024-01-30T15:11:25;58.43;;;7.17;;
11092;SDS011;5600;50.864;6.102;2024-01-30T15:14:26;174.90;;;11.73;;
11092;SDS011;5600;50.864;6.102;2024-01-30T15:17:28;116.70;;;8.47;;
11092;SDS011;5600;50.864;6.102;2024-01-30T15:20:29;184.57;;;11.80;;
11092;SDS011;5600;50.864;6.102;2024-01-30T15:23:31;78.50;;;6.50;;
11092;SDS011;5600;50.864;6.102;2024-01-30T15:26:32;112.97;;;7.83;;
11092;SDS011;5600;50.864;6.102;2024-01-30T15:29:34;107.63;;;7.40;;
11092;SDS011;5600;50.864;6.102;2024-01-30T15:32:35;105.97;;;7.00;;
11092;SDS011;5600;50.864;6.102;2024-01-30T15:35:36;111.77;;;7.47;;
11092;SDS011;5600;50.864;6.102;2024-01-30T15:38:38;171.20;;;10.03;;
11092;SDS011;5600;50.864;6.102;2024-01-30T15:41:39;128.90;;;8.37;;
11092;SDS011;5600;50.864;6.102;2024-01-30T15:44:41;75.43;;;5.63;;
11092;SDS011;5600;50.864;6.102;2024-01-30T15:47:42;129.03;;;8.13;;
11092;SDS011;5600;50.864;6.102;2024-01-30T15:50:44;146.53;;;8.53;;
11092;SDS011;5600;50.864;6.102;2024-01-30T15:53:45;69.00;;;5.13;;
11092;SDS011;5600;50.864;6.102;2024-01-30T15:57:06;101.93;;;6.23;;
11092;SDS011;5600;50.864;6.102;2024-01-30T16:00:27;95.63;;;6.03;;
11092;SDS011;5600;50.864;6.102;2024-01-30T16:03:53;79.03;;;5.13;;
11092;SDS011;5600;50.864;6.102;2024-01-30T16:07:19;55.40;;;4.00;;
11092;SDS011;5600;50.864;6.102;2024-01-30T16:10:45;87.30;;;5.10;;
11092;SDS011;5600;50.864;6.102;2024-01-30T16:14:11;114.87;;;6.27;;
11092;SDS011;5600;50.864;6.102;2024-01-30T16:17:33;39.73;;;3.43;;
11092;SDS011;5600;50.864;6.102;2024-01-30T16:20:59;81.40;;;5.73;;
11092;SDS011;5600;50.864;6.102;2024-01-30T16:24:25;86.37;;;5.23;;
11092;SDS011;5600;50.864;6.102;2024-01-30T16:27:51;105.40;;;6.50;;
11092;SDS011;5600;50.864;6.102;2024-01-30T16:31:15;67.37;;;5.00;;
11092;SDS011;5600;50.864;6.102;2024-01-30T16:34:45;56.97;;;4.47;;
11092;SDS011;5600;50.864;6.102;2024-01-30T16:38:11;85.03;;;5.27;;
11092;SDS011;5600;50.864;6.102;2024-01-30T16:41:37;116.30;;;6.90;;
11092;SDS011;5600;50.864;6.102;2024-01-30T16:45:03;90.87;;;5.73;;
11092;SDS011;5600;50.864;6.102;2024-01-30T16:48:30;91.10;;;5.67;;
11092;SDS011;5600;50.864;6.102;2024-01-30T16:51:53;71.27;;;4.70;;
11092;SDS011;5600;50.864;6.102;2024-01-30T16:55:15;91.90;;;5.83;;
11092;SDS011;5600;50.864;6.102;2024-01-30T16:58:41;67.83;;;4.50;;
11092;SDS011;5600;50.864;6.102;2024-01-30T17:02:05;103.23;;;6.13;;
11092;SDS011;5600;50.864;6.102;2024-01-30T17:05:31;142.00;;;7.87;;
11092;SDS011;5600;50.864;6.102;2024-01-30T17:08:55;97.07;;;5.70;;
11092;SDS011;5600;50.864;6.102;2024-01-30T17:12:21;101.30;;;5.73;;
11092;SDS011;5600;50.864;6.102;2024-01-30T17:15:47;87.83;;;5.23;;
11092;SDS011;5600;50.864;6.102;2024-01-30T17:19:12;109.03;;;6.30;;
11092;SDS011;5600;50.864;6.102;2024-01-30T17:22:40;97.83;;;5.67;;
11092;SDS011;5600;50.864;6.102;2024-01-30T17:26:01;121.03;;;6.80;;
11092;SDS011;5600;50.864;6.102;2024-01-30T17:29:22;153.00;;;7.87;;
11092;SDS011;5600;50.864;6.102;2024-01-30T17:32:46;160.97;;;8.67;;
11092;SDS011;5600;50.864;6.102;2024-01-30T17:36:09;57.87;;;4.10;;
11092;SDS011;5600;50.864;6.102;2024-01-30T17:39:35;101.83;;;5.67;;
11092;SDS011;5600;50.864;6.102;2024-01-30T17:43:03;95.23;;;5.67;;
11092;SDS011;5600;50.864;6.102;2024-01-30T17:46:23;53.13;;;4.07;;
11092;SDS011;5600;50.864;6.102;2024-01-30T17:49:43;70.73;;;4.50;;
11092;SDS011;5600;50.864;6.102;2024-01-30T17:52:44;44.17;;;3.60;;
11092;SDS011;5600;50.864;6.102;2024-01-30T17:55:45;52.70;;;3.77;;
11092;SDS011;5600;50.864;6.102;2024-01-30T17:58:47;59.87;;;4.27;;
11092;SDS011;5600;50.864;6.102;2024-01-30T18:01:48;51.93;;;3.93;;
11092;SDS011;5600;50.864;6.102;2024-01-30T18:04:49;58.50;;;3.77;;
11092;SDS011;5600;50.864;6.102;2024-01-30T18:07:50;45.87;;;3.60;;
11092;SDS011;5600;50.864;6.102;2024-01-30T18:10:51;62.07;;;4.07;;
11092;SDS011;5600;50.864;6.102;2024-01-30T18:13:52;57.33;;;3.97;;
11092;SDS011;5600;50.864;6.102;2024-01-30T18:16:55;41.10;;;3.30;;
11092;SDS011;5600;50.864;6.102;2024-01-30T18:19:56;30.17;;;2.60;;